createdAt,value
2022-09-16T00:01:14.556Z,-144.00
2022-09-16T00:06:21.675Z,-108.00
2022-09-16T00:11:28.848Z,-144.00
2022-09-16T00:16:36.191Z,-108.00
2022-09-16T00:21:43.270Z,-144.00
2022-09-16T00:26:50.480Z,-144.00
2022-09-16T00:31:57.647Z,-144.00
2022-09-16T00:37:04.783Z,-108.00
2022-09-16T00:42:11.987Z,-108.00
2022-09-16T00:47:19.253Z,-144.00
2022-09-16T00:52:26.411Z,-144.00
2022-09-16T00:57:33.653Z,-144.00
2022-09-16T01:02:40.930Z,-144.00
2022-09-16T01:07:48.131Z,-144.00
2022-09-16T01:12:55.355Z,-144.00
2022-09-16T01:18:02.548Z,-144.00
2022-09-16T01:23:09.725Z,-108.00
2022-09-16T01:28:16.968Z,-144.00
2022-09-16T01:33:24.155Z,-144.00
2022-09-16T01:38:31.305Z,-144.00
2022-09-16T01:43:38.463Z,-108.00
2022-09-16T01:48:46.496Z,-108.00
2022-09-16T01:53:52.940Z,-144.00
2022-09-16T01:59:00.068Z,-108.00
2022-09-16T02:04:07.222Z,-144.00
2022-09-16T02:09:14.358Z,-144.00
2022-09-16T02:14:21.596Z,-108.00
2022-09-16T02:19:28.837Z,-144.00
2022-09-16T02:24:36.089Z,-108.00
2022-09-16T02:29:43.291Z,-144.00
2022-09-16T02:34:50.521Z,-144.00
2022-09-16T02:39:57.847Z,-144.00
2022-09-16T02:45:04.948Z,-108.00
2022-09-16T02:50:12.538Z,-144.00
2022-09-16T02:55:19.737Z,-144.00
2022-09-16T03:00:26.999Z,-108.00
2022-09-16T03:05:34.272Z,-144.00
2022-09-16T03:10:41.562Z,-108.00
2022-09-16T03:15:48.858Z,-108.00
2022-09-16T03:20:56.073Z,-144.00
2022-09-16T03:26:03.243Z,-144.00
2022-09-16T03:31:10.582Z,-144.00
2022-09-16T03:36:17.767Z,-108.00
2022-09-16T03:41:24.976Z,-108.00
2022-09-16T03:46:32.230Z,-144.00
2022-09-16T03:51:39.464Z,-144.00
2022-09-16T03:56:46.646Z,-108.00
2022-09-16T04:01:53.871Z,-108.00
2022-09-16T04:07:01.117Z,-144.00
2022-09-16T04:12:08.294Z,-144.00
2022-09-16T04:17:15.509Z,-108.00
2022-09-16T04:22:22.735Z,-144.00
2022-09-16T04:27:29.919Z,-144.00
2022-09-16T04:32:37.079Z,-144.00
2022-09-16T04:37:44.297Z,-144.00
2022-09-16T04:42:51.534Z,-144.00
2022-09-16T04:47:58.745Z,-144.00
2022-09-16T04:53:05.950Z,-108.00
2022-09-16T04:58:13.157Z,-108.00
2022-09-16T05:03:20.443Z,-108.00
2022-09-16T05:08:27.612Z,-108.00
2022-09-16T05:13:34.860Z,-108.00
2022-09-16T05:18:42.071Z,-108.00
2022-09-16T05:23:49.639Z,-108.00
2022-09-16T05:28:56.483Z,-72.00
2022-09-16T05:34:03.668Z,-72.00
2022-09-16T05:39:22.782Z,-72.00
2022-09-16T05:44:18.143Z,-72.00
2022-09-16T05:49:25.382Z,-36.00
2022-09-16T05:54:32.851Z,-36.00
2022-09-16T05:59:39.936Z,0.00
2022-09-16T06:04:47.141Z,36.00
2022-09-16T06:09:54.512Z,72.00
2022-09-16T06:15:01.634Z,7920.00
2022-09-16T06:20:08.861Z,9468.00
2022-09-16T06:25:16.233Z,9432.00
2022-09-16T06:30:24.667Z,10620.00
2022-09-16T06:35:30.569Z,9612.00
2022-09-16T06:40:37.966Z,9396.00
2022-09-16T06:45:45.188Z,9036.00
2022-09-16T06:50:52.380Z,10620.00
2022-09-16T06:55:59.710Z,12024.00
2022-09-16T07:01:06.918Z,12492.00
2022-09-16T07:06:14.254Z,12960.00
2022-09-16T07:11:21.647Z,13284.00
2022-09-16T07:16:28.798Z,13464.00
2022-09-16T07:21:36.028Z,14292.00
2022-09-16T07:26:43.355Z,14256.00
2022-09-16T07:31:50.399Z,16308.00
2022-09-16T07:36:57.618Z,17640.00
2022-09-16T07:42:06.279Z,15840.00
2022-09-16T07:47:12.051Z,15660.00
2022-09-16T07:52:19.228Z,15300.00
2022-09-16T07:57:26.552Z,14832.00
2022-09-16T08:02:33.739Z,15012.00
2022-09-16T08:07:40.896Z,14760.00
2022-09-16T08:12:48.220Z,15408.00
2022-09-16T08:17:55.355Z,14688.00
2022-09-16T08:23:02.583Z,14688.00
2022-09-16T08:28:09.894Z,15408.00
2022-09-16T08:33:16.924Z,14472.00
2022-09-16T08:38:24.104Z,15588.00
2022-09-16T08:43:31.513Z,15624.00
2022-09-16T08:48:38.590Z,15840.00
2022-09-16T08:53:45.804Z,15876.00
2022-09-16T08:58:53.140Z,15840.00
2022-09-16T09:04:00.209Z,16056.00
2022-09-16T09:09:07.471Z,16092.00
2022-09-16T09:14:14.899Z,15876.00
2022-09-16T09:19:22.040Z,15732.00
2022-09-16T09:24:29.229Z,16668.00
2022-09-16T09:29:36.590Z,16812.00
2022-09-16T09:34:43.643Z,16380.00
2022-09-16T09:39:50.932Z,15084.00
2022-09-16T09:45:01.421Z,14688.00
2022-09-16T09:50:05.254Z,14544.00
2022-09-16T09:55:16.126Z,15552.00
2022-09-16T10:00:19.906Z,13608.00
2022-09-16T10:05:27.037Z,10188.00
2022-09-16T10:10:34.296Z,13356.00
2022-09-16T10:15:41.691Z,16452.00
2022-09-16T10:20:48.813Z,16848.00
2022-09-16T10:25:56.033Z,17496.00
2022-09-16T10:31:03.567Z,17784.00
2022-09-16T10:36:10.598Z,17244.00
2022-09-16T10:41:17.865Z,17352.00
2022-09-16T10:46:25.297Z,16380.00
2022-09-16T10:51:32.307Z,15552.00
2022-09-16T10:56:39.522Z,15948.00
2022-09-16T11:01:48.147Z,13212.00
2022-09-16T11:06:53.937Z,13428.00
2022-09-16T11:12:01.163Z,14904.00
2022-09-16T11:17:08.620Z,19044.00
2022-09-16T11:22:15.696Z,18864.00
2022-09-16T11:27:23.019Z,17532.00
2022-09-16T11:32:30.429Z,16740.00
2022-09-16T11:37:37.536Z,16632.00
2022-09-16T11:42:45.810Z,16596.00
2022-09-16T11:47:52.166Z,16164.00
2022-09-16T11:53:04.446Z,15516.00
2022-09-16T11:58:06.500Z,11448.00
2022-09-16T12:03:14.039Z,12816.00
2022-09-16T12:08:21.031Z,11376.00
2022-09-16T12:13:28.939Z,6948.00
2022-09-16T12:18:36.341Z,6516.00
2022-09-16T12:23:43.462Z,7488.00
2022-09-16T12:28:50.678Z,10008.00
2022-09-16T12:33:58.052Z,11268.00
2022-09-16T12:39:05.145Z,10764.00
2022-09-16T12:44:30.440Z,8604.00
2022-09-16T12:49:19.809Z,6696.00
2022-09-16T12:54:26.962Z,5544.00
2022-09-16T12:59:34.215Z,4392.00
2022-09-16T13:04:42.655Z,-72.00
2022-09-16T13:09:49.739Z,-36.00
2022-09-16T13:14:56.940Z,0.00
2022-09-16T13:20:04.336Z,0.00
2022-09-16T13:25:11.401Z,-36.00
2022-09-16T13:30:18.645Z,0.00
2022-09-16T13:35:26.098Z,36.00
2022-09-16T13:40:33.296Z,72.00
2022-09-16T13:45:40.482Z,36.00
2022-09-16T13:50:47.857Z,36.00
2022-09-16T13:55:54.985Z,36.00
2022-09-16T14:01:02.193Z,0.00
2022-09-16T14:06:09.614Z,-36.00
2022-09-16T14:11:16.698Z,0.00
2022-09-16T14:16:24.015Z,-72.00
2022-09-16T14:21:31.288Z,-36.00
2022-09-16T14:26:38.428Z,-36.00
2022-09-16T14:31:45.679Z,-72.00
2022-09-16T14:36:53.063Z,-72.00
2022-09-16T14:42:00.136Z,0.00
2022-09-16T14:47:10.019Z,-72.00
2022-09-16T14:52:14.763Z,-72.00
2022-09-16T14:57:21.857Z,-36.00
2022-09-16T15:02:29.131Z,-72.00
2022-09-16T15:07:46.052Z,-108.00
2022-09-16T15:12:43.581Z,-108.00
2022-09-16T15:17:53.289Z,-36.00
2022-09-16T15:22:58.165Z,-108.00
2022-09-16T15:28:05.319Z,-72.00
2022-09-16T15:33:12.571Z,-72.00
2022-09-16T15:38:19.902Z,6480.00
2022-09-16T15:43:27.035Z,7524.00
2022-09-16T15:48:34.301Z,5112.00
2022-09-16T15:53:41.640Z,3528.00
2022-09-16T15:58:48.701Z,4212.00
2022-09-16T16:03:55.950Z,4680.00
2022-09-16T16:09:03.258Z,4788.00
2022-09-16T16:14:10.316Z,2592.00
2022-09-16T16:19:17.547Z,3240.00
2022-09-16T16:24:24.943Z,3096.00
2022-09-16T16:29:32.021Z,10260.00
2022-09-16T16:34:39.235Z,11016.00
2022-09-16T16:39:46.628Z,10368.00
2022-09-16T16:44:53.705Z,10440.00
2022-09-16T16:50:00.905Z,9972.00
2022-09-16T16:55:08.312Z,9900.00
2022-09-16T17:00:15.421Z,9756.00
2022-09-16T17:05:22.657Z,9828.00
2022-09-16T17:10:29.984Z,9792.00
2022-09-16T17:15:37.081Z,9720.00
2022-09-16T17:20:44.317Z,9576.00
2022-09-16T17:25:51.714Z,9360.00
2022-09-16T17:30:58.921Z,9288.00
2022-09-16T17:36:06.096Z,9360.00
2022-09-16T17:41:13.454Z,9252.00
2022-09-16T17:46:20.616Z,9288.00
2022-09-16T17:51:27.792Z,9288.00
2022-09-16T17:56:35.164Z,9396.00
2022-09-16T18:01:42.242Z,9396.00
2022-09-16T18:06:49.437Z,9324.00
2022-09-16T18:11:56.791Z,9324.00
2022-09-16T18:17:03.914Z,9756.00
2022-09-16T18:22:11.051Z,9828.00
2022-09-16T18:27:18.685Z,9504.00
2022-09-16T18:32:25.910Z,9936.00
2022-09-16T18:37:33.187Z,9936.00
2022-09-16T18:42:40.900Z,9504.00
2022-09-16T18:47:48.206Z,9756.00
2022-09-16T18:52:55.467Z,10008.00
2022-09-16T18:58:02.859Z,9828.00
2022-09-16T19:03:09.940Z,9612.00
2022-09-16T19:08:17.181Z,9900.00
2022-09-16T19:13:24.558Z,9864.00
2022-09-16T19:18:31.641Z,9864.00
2022-09-16T19:23:38.853Z,9936.00
2022-09-16T19:28:46.190Z,10008.00
2022-09-16T19:33:53.250Z,9936.00
2022-09-16T19:39:00.434Z,9864.00
2022-09-16T19:44:07.738Z,9972.00
2022-09-16T19:49:14.858Z,9792.00
2022-09-16T19:54:22.055Z,9972.00
2022-09-16T19:59:29.416Z,9756.00
2022-09-16T20:04:36.544Z,9612.00
2022-09-16T20:09:43.795Z,9972.00
2022-09-16T20:14:51.109Z,9972.00
2022-09-16T20:19:58.207Z,10044.00
2022-09-16T20:25:22.062Z,10008.00
2022-09-16T20:30:12.881Z,9756.00
2022-09-16T20:35:19.981Z,10044.00
2022-09-16T20:40:27.320Z,9792.00
2022-09-16T20:45:34.601Z,9648.00
2022-09-16T20:50:41.677Z,9684.00
2022-09-16T20:55:48.950Z,9648.00
2022-09-16T21:00:56.664Z,9936.00
2022-09-16T21:06:03.654Z,9720.00
2022-09-16T21:11:11.813Z,9756.00
2022-09-16T21:16:19.192Z,9756.00
2022-09-16T21:21:26.267Z,9720.00
2022-09-16T21:26:33.504Z,9900.00
2022-09-16T21:31:41.112Z,9792.00
2022-09-16T21:36:47.910Z,9864.00
2022-09-16T21:41:55.107Z,9864.00
2022-09-16T21:47:02.405Z,9900.00
2022-09-16T21:52:09.511Z,9936.00
2022-09-16T21:57:17.105Z,9648.00
2022-09-16T22:02:28.464Z,9864.00
2022-09-16T22:07:31.447Z,9648.00
2022-09-16T22:12:38.636Z,10080.00
2022-09-16T22:17:48.881Z,9972.00
2022-09-16T22:22:53.682Z,9972.00
2022-09-16T22:28:00.816Z,9972.00
2022-09-16T22:33:08.119Z,9684.00
2022-09-16T22:38:15.198Z,10044.00
2022-09-16T22:43:22.434Z,10080.00
2022-09-16T22:48:29.818Z,9684.00
2022-09-16T22:53:36.977Z,10080.00
2022-09-16T22:58:44.239Z,9972.00
2022-09-16T23:03:51.582Z,9612.00
2022-09-16T23:08:58.746Z,-108.00
2022-09-16T23:14:05.888Z,-108.00
2022-09-16T23:19:13.225Z,-108.00
2022-09-16T23:24:20.341Z,-108.00
2022-09-16T23:29:27.558Z,-108.00
2022-09-16T23:34:34.866Z,-108.00
2022-09-16T23:39:41.985Z,-108.00
2022-09-16T23:44:49.146Z,-108.00
2022-09-16T23:49:56.443Z,-108.00
2022-09-16T23:55:04.059Z,-108.00
